Weather at Prof. Eribelto Manoel Reino State Airport

Public forecast

Using degrees Celsius for public forecast. Weather courtesy of forecast.io.

Current aviation weather report (METAR) for Prof. Eribelto Manoel Reino State Airport

2024/07/20 07:00 (retrieved 39 minutes ago)

SBSR 200700Z 12002KT CAVOK 17/09 Q1023

Closest aviation forecast (TAF) to Prof. Eribelto Manoel Reino State Airport

Closest forecast is Leite Lopes Airport, 93.5 nm (173.2 km) ESE.

2024/07/20 06:00 (retrieved 2 hours ago)

TAF SBRP 200430Z 2006/2018 10005KT CAVOK TN13/2010Z TX30/2017Z BECMG 2016/2018 VRB05KT RMK PGH